Time;durP1;ratioP1;P1;durP2;ratioP2;P2;SDS_P1;SDS_P2;PMS_P1;PMS_P2;Temp;Humidity;BMP_temperature;BMP_pressure;BME280_temperature;BME280_humidity;BME280_pressure;Samples;Min_cycle;Max_cycle;Signal;HPM_P1;HPM_P2
2022/11/04 00:01:19;;;;;;;2.42;1.70;;;15.80;70.50;;;;;;5027465;28;20056;-73
2022/11/04 00:03:46;;;;;;;1.65;1.45;;;15.80;70.60;;;;;;5028667;28;20054;-72
2022/11/04 00:06:13;;;;;;;2.22;1.50;;;15.80;70.60;;;;;;5029037;28;20053;-73
2022/11/04 00:08:41;;;;;;;1.95;1.55;;;15.80;70.50;;;;;;5012581;28;20057;-73
2022/11/04 00:13:51;;;;;;;2.20;1.70;;;15.80;70.60;;;;;;5013207;28;20049;-73
2022/11/04 00:19:02;;;;;;;2.05;1.60;;;15.80;70.60;;;;;;5065197;28;20077;-74
2022/11/04 00:29:42;;;;;;;2.20;1.60;;;15.80;70.60;;;;;;5064550;28;20041;-73
2022/11/04 00:34:53;;;;;;;2.28;1.40;;;15.80;70.60;;;;;;5064695;28;20057;-73
2022/11/04 00:37:20;;;;;;;2.35;1.63;;;15.70;70.60;;;;;;5031585;28;20081;-73
2022/11/04 00:39:48;;;;;;;2.10;1.40;;;15.80;70.60;;;;;;5031104;28;20060;-73
2022/11/04 00:42:15;;;;;;;1.98;1.40;;;15.60;72.70;;;;;;5031590;28;20408;-73
2022/11/04 00:44:41;;;;;;;1.80;1.50;;;15.80;70.60;;;;;;5031139;28;20055;-73
2022/11/04 00:47:08;;;;;;;2.83;1.80;;;15.80;70.60;;;;;;5031596;28;20067;-73
2022/11/04 00:49:35;;;;;;;1.80;1.30;;;15.80;70.60;;;;;;5013933;28;20410;-73
2022/11/04 00:52:01;;;;;;;2.42;1.80;;;15.80;70.60;;;;;;5028006;28;20056;-73
2022/11/04 00:54:28;;;;;;;2.10;1.50;;;15.80;70.60;;;;;;5012682;28;20046;-73
2022/11/04 00:56:56;;;;;;;2.17;1.42;;;15.80;70.60;;;;;;5027903;28;20156;-73
2022/11/04 00:59:23;;;;;;;1.90;1.67;;;15.80;70.60;;;;;;5011492;28;20049;-73
2022/11/04 01:01:50;;;;;;;2.15;1.50;;;15.80;70.60;;;;;;5012303;28;20056;-73
2022/11/04 01:04:16;;;;;;;1.75;1.42;;;15.80;70.60;;;;;;5030256;28;20071;-73
2022/11/04 01:06:43;;;;;;;2.25;1.67;;;15.80;70.60;;;;;;5030983;28;20049;-73
2022/11/04 01:09:11;;;;;;;1.60;1.42;;;15.80;70.60;;;;;;5032334;28;20057;-73
2022/11/04 01:11:37;;;;;;;1.67;1.33;;;15.80;70.60;;;;;;5030944;28;20486;-73
2022/11/04 01:14:05;;;;;;;1.95;1.60;;;15.80;70.60;;;;;;5030224;28;20053;-73
2022/11/04 01:16:32;;;;;;;2.22;1.52;;;15.80;70.60;;;;;;5025174;28;20057;-73
2022/11/04 01:18:59;;;;;;;1.63;1.30;;;15.80;70.60;;;;;;5011155;28;20049;-73
2022/11/04 01:21:26;;;;;;;1.83;1.40;;;15.80;70.60;;;;;;5011160;28;20488;-73
2022/11/04 01:23:52;;;;;;;1.70;1.33;;;15.80;70.60;;;;;;5011185;28;20191;-73
2022/11/04 01:26:20;;;;;;;2.08;1.50;;;15.80;70.60;;;;;;5011066;28;20064;-73
2022/11/04 01:28:47;;;;;;;1.73;1.42;;;15.80;70.60;;;;;;5010805;28;20136;-73
2022/11/04 01:31:20;;;;;;;2.10;1.40;;;15.80;70.60;;;;;;5017348;28;20061;-73
2022/11/04 01:33:46;;;;;;;1.65;1.30;;;15.80;70.60;;;;;;5030855;28;20140;-73
2022/11/04 01:36:13;;;;;;;1.90;1.30;;;15.80;70.60;;;;;;5031873;28;20402;-73
2022/11/04 01:38:40;;;;;;;2.15;1.50;;;15.80;70.60;;;;;;5030598;28;20053;-73
2022/11/04 01:41:07;;;;;;;1.60;1.20;;;15.80;70.60;;;;;;5031444;28;20083;-73
2022/11/04 01:43:44;;;;;;;2.38;1.55;;;15.80;70.60;;;;;;5030779;28;20080;-73
2022/11/04 01:46:12;;;;;;;1.98;1.30;;;15.80;70.60;;;;;;5015946;28;20056;-73
2022/11/04 01:48:40;;;;;;;1.80;1.40;;;15.80;70.60;;;;;;5027248;28;20089;-73
2022/11/04 01:51:07;;;;;;;1.50;1.30;;;15.80;70.60;;;;;;5010805;28;20056;-73
2022/11/04 01:53:35;;;;;;;1.40;1.13;;;15.80;70.60;;;;;;5010915;28;20132;-73
2022/11/04 01:56:03;;;;;;;1.55;1.20;;;15.80;70.60;;;;;;5010851;28;20060;-73
2022/11/04 01:58:31;;;;;;;1.70;1.30;;;15.80;70.60;;;;;;5011881;28;20057;-73
2022/11/04 02:00:58;;;;;;;1.15;1.05;;;15.80;70.60;;;;;;5026372;28;20049;-73
2022/11/04 02:03:26;;;;;;;3.05;1.30;;;15.80;70.60;;;;;;5030474;28;20414;-73
2022/11/04 02:05:54;;;;;;;1.30;1.20;;;15.80;70.60;;;;;;5030485;28;20090;-73
2022/11/04 02:08:21;;;;;;;1.48;1.30;;;15.80;70.60;;;;;;5030598;28;20057;-73
2022/11/04 02:10:50;;;;;;;1.38;1.13;;;15.80;70.60;;;;;;5031389;28;20064;-73
2022/11/04 02:13:16;;;;;;;1.40;1.17;;;15.80;70.60;;;;;;5028543;28;20052;-73
2022/11/04 02:15:45;;;;;;;1.40;1.20;;;15.80;70.60;;;;;;5010658;28;20129;-73
2022/11/04 02:18:22;;;;;;;1.52;1.23;;;15.80;70.60;;;;;;5027066;28;20153;-73
2022/11/04 02:20:59;;;;;;;1.73;1.30;;;15.80;70.60;;;;;;5027066;28;20057;-73
2022/11/04 02:24:05;;;;;;;1.65;1.27;;;15.80;70.60;;;;;;5026885;28;20137;-73
2022/11/04 02:27:00;;;;;;;1.53;1.30;;;15.80;70.50;;;;;;5013343;28;20137;-73
2022/11/04 02:29:33;;;;;;;1.58;1.20;;;15.80;70.60;;;;;;5027585;28;20049;-73
2022/11/04 02:32:05;;;;;;;1.52;1.10;;;15.80;70.60;;;;;;5033744;28;20053;-73
2022/11/04 02:34:38;;;;;;;1.20;1.10;;;15.80;70.60;;;;;;5033833;28;20061;-73
2022/11/04 02:37:08;;;;;;;1.45;1.20;;;15.80;70.60;;;;;;5034011;28;20061;-73
2022/11/04 02:39:37;;;;;;;1.70;1.33;;;15.80;70.60;;;;;;5033795;28;20137;-73
2022/11/04 02:42:07;;;;;;;1.27;1.10;;;15.80;70.60;;;;;;5028865;28;20057;-73
2022/11/04 02:44:37;;;;;;;1.10;1.00;;;15.80;70.60;;;;;;5030398;28;20057;-73
2022/11/04 02:47:04;;;;;;;1.95;1.15;;;15.80;70.60;;;;;;5030464;28;20487;-73
2022/11/04 02:49:34;;;;;;;1.50;1.30;;;15.80;70.60;;;;;;5030568;28;20077;-73
2022/11/04 02:52:02;;;;;;;1.55;1.20;;;15.80;70.60;;;;;;5014758;28;20054;-73
2022/11/04 02:54:32;;;;;;;1.10;1.00;;;15.80;70.60;;;;;;5030386;28;20152;-73
2022/11/04 02:57:02;;;;;;;1.27;1.10;;;15.80;70.60;;;;;;5020974;28;20103;-73
2022/11/04 02:59:31;;;;;;;1.20;1.10;;;15.80;70.60;;;;;;5033570;28;20060;-73
2022/11/04 03:01:59;;;;;;;1.10;1.00;;;15.80;70.60;;;;;;5033298;28;20144;-73
2022/11/04 03:04:27;;;;;;;1.40;1.10;;;15.80;70.60;;;;;;5031967;28;20057;-73
2022/11/04 03:06:54;;;;;;;1.20;1.10;;;15.80;70.60;;;;;;5013483;28;20053;-73
2022/11/04 03:09:21;;;;;;;1.05;1.00;;;15.80;70.60;;;;;;5013592;28;20061;-73
2022/11/04 03:11:49;;;;;;;1.73;1.10;;;15.80;70.60;;;;;;5027394;28;20132;-73
2022/11/04 03:14:17;;;;;;;0.98;0.90;;;15.80;70.60;;;;;;5033232;28;20061;-73
2022/11/04 03:16:45;;;;;;;1.65;1.10;;;15.80;70.60;;;;;;5033268;28;20140;-73
2022/11/04 03:19:15;;;;;;;1.35;1.02;;;15.80;70.60;;;;;;5033076;28;20055;-73
2022/11/04 03:21:45;;;;;;;1.50;1.10;;;15.80;70.60;;;;;;5033824;28;20069;-73
2022/11/04 03:24:12;;;;;;;0.95;0.90;;;15.80;70.60;;;;;;5033207;28;20063;-73
2022/11/04 03:26:41;;;;;;;1.45;0.90;;;15.80;70.60;;;;;;5017890;28;20180;-73
2022/11/04 03:29:17;;;;;;;1.70;1.10;;;15.80;70.60;;;;;;5029505;28;20056;-73
2022/11/04 03:31:47;;;;;;;1.20;0.98;;;15.80;70.50;;;;;;5029452;28;20064;-73
2022/11/04 03:34:15;;;;;;;1.90;1.05;;;15.80;70.60;;;;;;5014206;28;20052;-73
2022/11/04 03:36:41;;;;;;;1.27;1.00;;;15.80;70.60;;;;;;5013729;28;20129;-73
2022/11/04 03:39:08;;;;;;;1.20;1.10;;;15.80;70.50;;;;;;5017102;28;20060;-73
2022/11/04 03:41:37;;;;;;;1.45;1.10;;;15.80;70.50;;;;;;5032481;28;20490;-73
2022/11/04 03:44:04;;;;;;;1.73;1.00;;;15.80;70.60;;;;;;5032273;28;20052;-73
2022/11/04 03:46:30;;;;;;;1.15;1.05;;;15.80;70.60;;;;;;5032611;28;20053;-73
2022/11/04 03:48:57;;;;;;;1.05;0.95;;;15.80;70.50;;;;;;5032587;28;20079;-73
2022/11/04 03:51:25;;;;;;;1.52;0.90;;;15.80;70.50;;;;;;5032429;28;20076;-73
2022/11/04 03:53:52;;;;;;;0.90;0.90;;;15.80;70.50;;;;;;5027736;28;20056;-73
2022/11/04 03:56:35;;;;;;;0.98;0.90;;;15.80;70.50;;;;;;5012816;28;20545;-73
2022/11/04 03:59:09;;;;;;;1.20;1.02;;;15.80;70.50;;;;;;5013662;28;20395;-73
2022/11/04 04:01:40;;;;;;;1.48;1.13;;;15.80;70.60;;;;;;5028980;28;20502;-73
2022/11/04 04:04:08;;;;;;;1.08;0.93;;;15.70;70.50;;;;;;5012330;28;20062;-73
2022/11/04 04:06:36;;;;;;;1.58;0.93;;;15.80;70.60;;;;;;5045699;28;20176;-73
2022/11/04 04:09:05;;;;;;;1.10;1.00;;;15.80;70.60;;;;;;5027754;28;20060;-73
2022/11/04 04:11:37;;;;;;;0.80;0.80;;;15.70;70.50;;;;;;5032118;28;20053;-73
2022/11/04 04:14:05;;;;;;;1.70;1.05;;;15.80;70.60;;;;;;5032167;28;20136;-73
2022/11/04 04:16:33;;;;;;;1.20;1.10;;;15.70;70.50;;;;;;5031872;28;20059;-73
2022/11/04 04:19:02;;;;;;;1.00;0.90;;;15.80;70.60;;;;;;5033145;28;20075;-73
2022/11/04 04:21:40;;;;;;;0.93;0.93;;;15.80;70.60;;;;;;5031742;28;20049;-73
2022/11/04 04:29:36;;;;;;;1.02;0.90;;;15.70;70.50;;;;;;5028383;28;20409;-73
2022/11/04 04:32:03;;;;;;;1.10;1.00;;;15.70;70.70;;;;;;5028339;28;20068;-73
2022/11/04 04:34:31;;;;;;;0.85;0.80;;;15.70;70.60;;;;;;5012094;28;20585;-73
2022/11/04 04:37:00;;;;;;;0.80;0.80;;;15.70;70.60;;;;;;5028702;28;20049;-73
2022/11/04 04:45:06;;;;;;;0.80;0.80;;;15.70;70.60;;;;;;5045110;28;20057;-73
2022/11/04 04:47:36;;;;;;;0.90;0.80;;;15.70;70.60;;;;;;5011772;28;20053;-73
2022/11/04 04:50:03;;;;;;;0.73;0.73;;;15.70;70.60;;;;;;5027500;28;20045;-73
2022/11/04 04:52:31;;;;;;;1.00;0.88;;;15.70;70.60;;;;;;5019496;28;20045;-73
2022/11/04 04:54:59;;;;;;;1.05;0.95;;;15.70;70.60;;;;;;5031149;28;20060;-73
2022/11/04 04:57:26;;;;;;;1.02;0.80;;;15.80;70.60;;;;;;5030731;28;20071;-73
2022/11/04 04:59:53;;;;;;;0.90;0.90;;;15.70;70.50;;;;;;5011192;28;20483;-73
2022/11/04 05:02:19;;;;;;;0.98;0.90;;;15.70;70.50;;;;;;5011400;28;20056;-73
2022/11/04 05:04:46;;;;;;;0.80;0.80;;;15.70;70.50;;;;;;5027686;28;20064;-73
2022/11/04 05:07:13;;;;;;;0.90;0.80;;;16.20;70.80;;;;;;5011501;28;20426;-72
2022/11/04 05:09:40;;;;;;;1.00;0.90;;;15.70;70.50;;;;;;5025083;28;20056;-73
2022/11/04 05:12:08;;;;;;;0.90;0.80;;;15.70;70.50;;;;;;5030842;28;20061;-72
2022/11/04 05:14:35;;;;;;;0.80;0.80;;;15.80;70.60;;;;;;5030973;28;20064;-72
2022/11/04 05:17:02;;;;;;;0.70;0.70;;;15.70;70.50;;;;;;5031097;28;20505;-72
2022/11/04 05:19:29;;;;;;;0.93;0.82;;;15.80;70.60;;;;;;5030961;28;20095;-73
2022/11/04 05:21:55;;;;;;;0.93;0.82;;;15.70;70.50;;;;;;5030777;28;20509;-72
2022/11/04 05:24:22;;;;;;;0.88;0.88;;;15.80;70.60;;;;;;5017312;28;20137;-72
2022/11/04 05:26:49;;;;;;;0.75;0.75;;;15.80;70.60;;;;;;5011108;28;20137;-72
2022/11/04 05:29:17;;;;;;;1.00;0.90;;;15.70;70.50;;;;;;5011142;28;20064;-72
2022/11/04 05:31:44;;;;;;;1.13;0.70;;;15.70;70.50;;;;;;5010967;28;20084;-73
2022/11/04 05:34:10;;;;;;;0.80;0.80;;;15.80;70.60;;;;;;5011174;28;20058;-72
2022/11/04 05:36:37;;;;;;;0.82;0.82;;;15.70;70.50;;;;;;5011460;28;20061;-72
2022/11/04 05:39:04;;;;;;;1.02;0.90;;;15.70;70.50;;;;;;5030871;28;20060;-72
2022/11/04 05:41:31;;;;;;;0.70;0.70;;;15.70;70.50;;;;;;5030239;28;20057;-72
2022/11/04 05:43:58;;;;;;;0.98;0.80;;;15.70;70.50;;;;;;5030762;28;20053;-72
2022/11/04 05:46:26;;;;;;;0.80;0.80;;;15.70;70.40;;;;;;5030841;28;20060;-72
2022/11/04 05:48:53;;;;;;;0.80;0.80;;;15.70;70.40;;;;;;5030766;28;20140;-72
2022/11/04 05:51:21;;;;;;;0.85;0.82;;;15.80;70.50;;;;;;5029827;28;20061;-72
2022/11/04 05:53:47;;;;;;;1.02;0.80;;;15.70;70.40;;;;;;5026912;28;20050;-72
2022/11/04 05:56:14;;;;;;;1.25;0.90;;;15.70;70.40;;;;;;5011083;28;20060;-73
2022/11/04 05:58:41;;;;;;;0.88;0.85;;;15.70;70.40;;;;;;5011923;28;20050;-72
2022/11/04 06:01:12;;;;;;;0.70;0.70;;;15.80;70.50;;;;;;5013152;28;20133;-72
2022/11/04 06:03:40;;;;;;;0.70;0.70;;;15.70;70.40;;;;;;5031182;28;20053;-72
2022/11/04 06:06:07;;;;;;;0.80;0.80;;;15.70;70.40;;;;;;5023149;28;20060;-72
2022/11/04 06:08:34;;;;;;;0.70;0.60;;;15.70;70.50;;;;;;5035828;28;20406;-72
2022/11/04 06:11:00;;;;;;;0.70;0.70;;;15.70;70.50;;;;;;5034281;28;20060;-72
2022/11/04 06:13:27;;;;;;;1.02;0.80;;;15.70;70.40;;;;;;5034472;28;20061;-72
2022/11/04 06:15:54;;;;;;;0.70;0.70;;;15.70;70.40;;;;;;5034428;28;20578;-72
2022/11/04 06:18:20;;;;;;;0.93;0.88;;;15.70;70.40;;;;;;5034064;28;20053;-72
2022/11/04 06:20:48;;;;;;;0.70;0.70;;;15.70;70.40;;;;;;5025604;28;20046;-72
2022/11/04 06:23:15;;;;;;;1.73;0.77;;;15.70;70.40;;;;;;5014305;28;20414;-72
2022/11/04 06:25:42;;;;;;;0.80;0.80;;;15.70;70.40;;;;;;5014610;28;20054;-72
2022/11/04 06:28:09;;;;;;;0.65;0.65;;;15.70;70.40;;;;;;5014195;28;20137;-72
2022/11/04 06:30:35;;;;;;;0.52;0.52;;;15.70;70.40;;;;;;5014237;28;20177;-72
2022/11/04 06:33:02;;;;;;;0.60;0.60;;;15.70;70.40;;;;;;5014241;28;20088;-72
2022/11/04 06:35:29;;;;;;;0.68;0.68;;;15.70;73.00;;;;;;5029656;28;20104;-72
2022/11/04 06:37:58;;;;;;;0.57;0.57;;;15.70;70.40;;;;;;5033945;28;20179;-72
2022/11/04 06:40:25;;;;;;;0.52;0.52;;;15.70;70.40;;;;;;5033566;28;20148;-72
2022/11/04 06:42:52;;;;;;;0.60;0.60;;;15.70;70.40;;;;;;5033588;28;20120;-72
2022/11/04 06:45:18;;;;;;;0.82;0.70;;;15.70;70.40;;;;;;5033941;28;20050;-72
2022/11/04 06:47:45;;;;;;;0.70;0.70;;;15.70;70.40;;;;;;5033847;28;20053;-72
2022/11/04 06:50:12;;;;;;;0.60;0.60;;;15.70;70.40;;;;;;5018135;28;20065;-74
2022/11/04 06:52:39;;;;;;;0.70;0.70;;;15.70;70.40;;;;;;5013616;28;20133;-73
2022/11/04 06:55:08;;;;;;;0.98;0.80;;;15.70;70.40;;;;;;5013936;28;20053;-73
2022/11/04 06:57:35;;;;;;;0.63;0.63;;;15.70;70.40;;;;;;5013639;28;20064;-72
2022/11/04 07:00:02;;;;;;;0.60;0.60;;;15.70;70.40;;;;;;5013616;28;20060;-73
2022/11/04 07:02:29;;;;;;;0.50;0.50;;;15.70;70.40;;;;;;5016244;28;20107;-72
2022/11/04 07:04:56;;;;;;;0.68;0.68;;;15.70;70.40;;;;;;5033485;28;20053;-73
2022/11/04 07:07:22;;;;;;;0.80;0.80;;;15.70;70.40;;;;;;5033532;28;20136;-73
2022/11/04 07:09:49;;;;;;;0.70;0.70;;;15.70;70.40;;;;;;5033474;28;20064;-72
2022/11/04 07:12:17;;;;;;;0.70;0.70;;;15.70;70.40;;;;;;5032383;28;20057;-72
2022/11/04 07:14:44;;;;;;;0.73;0.73;;;15.70;70.40;;;;;;5033164;28;20135;-74
2022/11/04 07:17:10;;;;;;;2.47;0.70;;;15.70;70.40;;;;;;5031766;28;20049;-72
2022/11/04 07:19:37;;;;;;;0.60;0.60;;;15.60;70.30;;;;;;5013481;28;20057;-73
2022/11/04 07:22:04;;;;;;;0.80;0.80;;;15.70;70.40;;;;;;5013003;28;20053;-73
2022/11/04 07:24:31;;;;;;;0.85;0.77;;;15.70;70.40;;;;;;5013357;28;20137;-74
2022/11/04 07:26:58;;;;;;;0.73;0.73;;;15.70;70.40;;;;;;5013242;28;20053;-74
2022/11/04 07:29:27;;;;;;;0.70;0.70;;;15.70;70.40;;;;;;5014137;28;20486;-73
2022/11/04 07:31:54;;;;;;;0.70;0.70;;;15.70;70.40;;;;;;5029815;28;20053;-73
2022/11/04 07:34:21;;;;;;;1.10;0.70;;;15.70;70.30;;;;;;5046166;28;20060;-74
2022/11/04 07:36:47;;;;;;;0.60;0.60;;;15.70;70.40;;;;;;5013002;28;20104;-73
2022/11/04 07:39:14;;;;;;;0.40;0.40;;;15.70;70.30;;;;;;5012973;28;20060;-74
2022/11/04 07:41:41;;;;;;;0.65;0.65;;;15.70;70.40;;;;;;5013663;28;20077;-72
2022/11/04 07:44:10;;;;;;;0.60;0.60;;;15.70;70.40;;;;;;5012897;28;20077;-72
2022/11/04 07:46:38;;;;;;;0.80;0.80;;;15.70;70.30;;;;;;5014127;28;20565;-73
2022/11/04 07:49:05;;;;;;;0.70;0.70;;;15.70;70.30;;;;;;5029527;28;20053;-73
2022/11/04 07:51:32;;;;;;;0.60;0.60;;;15.70;70.40;;;;;;5045773;28;20533;-73
2022/11/04 07:53:58;;;;;;;0.57;0.57;;;15.70;70.40;;;;;;5013775;28;20052;-73
2022/11/04 07:56:25;;;;;;;1.05;0.63;;;15.70;70.30;;;;;;5045757;28;20567;-73
2022/11/04 07:58:52;;;;;;;0.65;0.65;;;15.70;70.40;;;;;;5013795;28;20502;-73
2022/11/04 08:01:22;;;;;;;0.60;0.60;;;15.70;70.30;;;;;;5044992;28;20045;-73
2022/11/04 08:03:50;;;;;;;0.52;0.52;;;15.70;70.30;;;;;;5064143;28;20053;-73
2022/11/04 08:06:17;;;;;;;0.55;0.50;;;15.70;70.30;;;;;;5032322;28;20060;-73
2022/11/04 08:08:44;;;;;;;0.60;0.60;;;15.70;70.30;;;;;;5033351;28;20128;-73
2022/11/04 08:11:12;;;;;;;0.68;0.68;;;15.70;70.30;;;;;;5032050;28;20060;-73
2022/11/04 08:13:39;;;;;;;0.60;0.60;;;15.70;70.30;;;;;;5032071;28;20571;-73
2022/11/04 08:16:08;;;;;;;0.77;0.70;;;15.70;70.30;;;;;;5025931;28;20053;-74
2022/11/04 08:18:35;;;;;;;0.98;0.80;;;15.70;70.30;;;;;;5028888;28;20065;-73
2022/11/04 08:21:03;;;;;;;0.60;0.60;;;15.70;70.30;;;;;;5011802;28;20637;-73
2022/11/04 08:23:31;;;;;;;0.65;0.65;;;15.70;70.30;;;;;;5011003;28;20065;-74
2022/11/04 08:25:58;;;;;;;0.60;0.57;;;15.70;70.30;;;;;;5012052;28;20058;-74
2022/11/04 08:28:24;;;;;;;0.60;0.60;;;15.70;70.30;;;;;;5028533;28;20060;-72
2022/11/04 08:30:55;;;;;;;0.60;0.60;;;15.70;70.30;;;;;;5017851;28;20131;-74
2022/11/04 08:33:22;;;;;;;0.70;0.70;;;15.70;70.30;;;;;;5031495;28;20056;-73
2022/11/04 08:35:49;;;;;;;0.50;0.50;;;15.70;70.30;;;;;;5031906;28;20144;-72
2022/11/04 08:38:17;;;;;;;0.52;0.52;;;15.70;70.20;;;;;;5033057;28;20426;-72
2022/11/04 08:40:43;;;;;;;0.63;0.63;;;15.70;70.20;;;;;;5031381;28;20050;-72
2022/11/04 08:43:10;;;;;;;0.50;0.50;;;15.70;70.30;;;;;;5031529;28;20505;-72
2022/11/04 08:45:39;;;;;;;0.60;0.60;;;15.70;70.30;;;;;;5029960;28;20056;-72
2022/11/04 08:48:06;;;;;;;0.80;0.70;;;15.70;70.30;;;;;;5031407;28;20058;-72
2022/11/04 08:50:33;;;;;;;0.40;0.40;;;15.70;70.30;;;;;;5031403;28;20069;-72
2022/11/04 08:52:59;;;;;;;0.60;0.60;;;15.70;70.30;;;;;;5031132;28;20057;-72
2022/11/04 08:55:29;;;;;;;0.60;0.60;;;15.70;70.30;;;;;;5031448;28;20063;-73
2022/11/04 08:57:56;;;;;;;1.77;0.70;;;15.70;70.20;;;;;;5031540;28;20443;-72
2022/11/04 09:00:23;;;;;;;0.77;0.73;;;15.70;70.30;;;;;;5016573;28;20049;-72
2022/11/04 09:02:49;;;;;;;0.60;0.60;;;15.70;70.30;;;;;;5010909;28;20050;-74
2022/11/04 09:05:16;;;;;;;0.52;0.52;;;15.70;70.20;;;;;;5011705;28;20451;-73
2022/11/04 09:07:43;;;;;;;0.52;0.52;;;15.70;70.20;;;;;;5011471;28;20097;-72
2022/11/04 09:10:10;;;;;;;0.40;0.40;;;15.70;70.30;;;;;;5011365;28;20061;-73
2022/11/04 09:12:38;;;;;;;0.50;0.50;;;15.70;70.30;;;;;;5012710;28;20147;-72
2022/11/04 09:15:06;;;;;;;0.60;0.60;;;15.70;70.20;;;;;;5031017;28;20059;-73
2022/11/04 09:17:32;;;;;;;0.88;0.70;;;15.70;70.20;;;;;;5031036;28;20053;-73
2022/11/04 09:19:59;;;;;;;0.63;0.63;;;15.70;70.10;;;;;;5031023;28;20065;-72
2022/11/04 09:22:26;;;;;;;1.23;0.73;;;15.70;70.10;;;;;;5030747;28;20130;-72
2022/11/04 09:24:52;;;;;;;0.57;0.57;;;15.70;70.20;;;;;;5030920;28;20060;-73
2022/11/04 09:27:20;;;;;;;0.50;0.50;;;15.70;70.20;;;;;;5029767;28;20057;-72
2022/11/04 09:29:48;;;;;;;0.80;0.50;;;15.70;70.20;;;;;;5010608;28;20132;-73
2022/11/04 09:32:14;;;;;;;0.65;0.65;;;15.70;70.20;;;;;;5011081;28;20046;-73
2022/11/04 09:34:41;;;;;;;0.90;0.57;;;15.70;70.20;;;;;;5010821;28;20782;-73
2022/11/04 09:37:08;;;;;;;1.17;0.70;;;15.70;70.20;;;;;;5011252;28;20137;-72
2022/11/04 09:39:35;;;;;;;0.88;0.65;;;15.70;70.20;;;;;;5027489;28;20491;-73
2022/11/04 09:42:10;;;;;;;0.60;0.60;;;15.70;70.20;;;;;;5018958;28;20056;-73
2022/11/04 09:44:43;;;;;;;0.80;0.80;;;15.70;70.20;;;;;;5030546;28;20068;-72
2022/11/04 09:47:12;;;;;;;0.60;0.60;;;15.70;70.20;;;;;;5030699;28;20129;-73
2022/11/04 09:49:40;;;;;;;0.80;0.80;;;15.70;70.20;;;;;;5030784;28;20065;-72
2022/11/04 09:52:08;;;;;;;0.82;0.52;;;15.70;70.20;;;;;;5030348;28;20053;-73
2022/11/04 09:54:39;;;;;;;0.60;0.60;;;15.70;70.20;;;;;;5030446;28;20058;-72
2022/11/04 09:57:05;;;;;;;0.75;0.70;;;15.70;70.20;;;;;;5019900;28;20077;-73
2022/11/04 09:59:33;;;;;;;0.50;0.50;;;15.60;70.20;;;;;;5010986;28;20060;-72
2022/11/04 10:02:11;;;;;;;0.65;0.65;;;15.70;70.20;;;;;;5010369;28;20056;-73
2022/11/04 10:04:46;;;;;;;0.50;0.50;;;15.70;70.20;;;;;;5027136;28;20133;-72
2022/11/04 10:07:21;;;;;;;1.02;0.70;;;15.70;70.20;;;;;;5043903;28;20058;-73
2022/11/04 10:09:54;;;;;;;0.50;0.50;;;15.70;70.30;;;;;;5012356;28;20054;-72
2022/11/04 10:12:28;;;;;;;0.50;0.50;;;15.70;70.30;;;;;;5030465;28;20083;-74
2022/11/04 10:15:18;;;;;;;0.73;0.73;;;15.70;70.30;;;;;;5030653;28;20057;-73
2022/11/04 10:17:54;;;;;;;0.50;0.50;;;15.70;70.20;;;;;;5027840;28;20482;-73
2022/11/04 10:20:30;;;;;;;0.57;0.50;;;15.70;70.30;;;;;;5030176;28;20058;-73
2022/11/04 10:22:58;;;;;;;0.80;0.70;;;15.70;70.30;;;;;;5030205;28;20050;-73
2022/11/04 10:25:28;;;;;;;0.55;0.47;;;15.70;70.30;;;;;;5021242;28;20081;-73
2022/11/04 10:27:55;;;;;;;0.60;0.60;;;15.70;70.20;;;;;;5010707;28;20503;-73
2022/11/04 10:30:22;;;;;;;0.50;0.50;;;15.70;70.30;;;;;;5010169;28;20053;-73
2022/11/04 10:32:58;;;;;;;0.60;0.60;;;15.70;70.30;;;;;;5010427;28;20487;-73
2022/11/04 10:35:30;;;;;;;0.47;0.47;;;15.70;70.20;;;;;;5027091;28;20077;-72
2022/11/04 10:37:58;;;;;;;0.70;0.60;;;15.70;70.20;;;;;;5010981;28;20121;-72
2022/11/04 10:40:27;;;;;;;1.98;0.68;;;15.70;70.20;;;;;;5026863;28;20076;-72
2022/11/04 10:42:54;;;;;;;0.57;0.57;;;15.70;70.20;;;;;;5043511;28;20052;-72
2022/11/04 10:45:21;;;;;;;1.27;0.80;;;15.70;70.20;;;;;;5043521;28;20060;-72
2022/11/04 10:47:51;;;;;;;0.75;0.60;;;15.70;70.20;;;;;;5045528;28;20087;-72
2022/11/04 10:50:36;;;;;;;1.13;0.80;;;15.70;70.20;;;;;;5047114;28;20140;-72
2022/11/04 10:53:09;;;;;;;0.52;0.52;;;15.70;70.10;;;;;;5014365;28;20122;-72
2022/11/04 10:55:39;;;;;;;0.57;0.50;;;15.70;70.20;;;;;;5033720;28;20058;-72
2022/11/04 10:58:11;;;;;;;2.05;0.70;;;15.70;70.20;;;;;;5034767;28;20199;-72
2022/11/04 11:00:39;;;;;;;0.55;0.55;;;15.70;70.20;;;;;;5033025;28;20057;-72
2022/11/04 11:03:23;;;;;;;0.60;0.60;;;15.70;70.10;;;;;;5029955;28;20637;-72
2022/11/04 11:05:51;;;;;;;0.82;0.70;;;15.80;70.10;;;;;;5013472;28;20054;-72
2022/11/04 11:08:28;;;;;;;0.77;0.60;;;15.80;70.20;;;;;;5027332;28;20060;-72
2022/11/04 11:10:55;;;;;;;1.17;0.80;;;15.80;70.10;;;;;;5033381;28;20061;-73
2022/11/04 11:13:26;;;;;;;0.60;0.60;;;15.80;70.10;;;;;;5033157;28;20511;-71
2022/11/04 11:16:04;;;;;;;1.08;0.60;;;15.80;70.10;;;;;;5033249;28;20139;-72
2022/11/04 11:18:31;;;;;;;0.90;0.75;;;15.80;70.00;;;;;;5033482;28;20133;-72
2022/11/04 11:21:07;;;;;;;0.88;0.65;;;15.80;70.10;;;;;;5034091;28;20068;-72
2022/11/04 11:23:37;;;;;;;0.70;0.70;;;15.80;70.00;;;;;;5014674;28;20132;-73
2022/11/04 11:26:04;;;;;;;0.65;0.65;;;15.80;70.10;;;;;;5029936;28;20049;-73
2022/11/04 11:28:36;;;;;;;0.60;0.60;;;15.80;70.10;;;;;;5029758;28;20161;-73
2022/11/04 11:31:07;;;;;;;0.70;0.70;;;15.80;70.10;;;;;;5013078;28;20049;-73
2022/11/04 11:33:34;;;;;;;0.95;0.68;;;17.00;70.70;;;;;;5014435;28;20141;-73
2022/11/04 11:36:04;;;;;;;0.75;0.75;;;15.80;70.10;;;;;;5019467;28;20054;-73
2022/11/04 11:38:33;;;;;;;0.50;0.50;;;15.80;70.10;;;;;;5032957;28;20057;-73
2022/11/04 11:41:07;;;;;;;0.52;0.50;;;15.80;70.10;;;;;;5032636;28;20060;-73
2022/11/04 11:43:34;;;;;;;0.47;0.47;;;15.80;70.10;;;;;;5032865;28;20080;-73
2022/11/04 11:46:01;;;;;;;0.57;0.50;;;15.80;70.60;;;;;;5032744;28;20059;-73
2022/11/04 11:48:29;;;;;;;0.68;0.60;;;15.80;70.10;;;;;;5032391;28;20132;-73
2022/11/04 11:50:57;;;;;;;0.77;0.47;;;15.80;70.10;;;;;;5023636;28;20064;-73
2022/11/04 11:53:24;;;;;;;0.77;0.73;;;15.80;70.10;;;;;;5029245;28;20046;-73
2022/11/04 11:55:54;;;;;;;0.70;0.68;;;15.80;70.10;;;;;;5029244;28;20081;-72
2022/11/04 11:58:28;;;;;;;0.90;0.70;;;15.80;70.10;;;;;;5029216;28;20515;-72
2022/11/04 12:00:57;;;;;;;0.93;0.60;;;15.80;70.00;;;;;;5012738;28;20138;-72
2022/11/04 12:03:29;;;;;;;1.42;0.60;;;15.80;70.10;;;;;;5028692;28;20058;-72
2022/11/04 12:06:00;;;;;;;0.57;0.57;;;15.80;70.10;;;;;;5030959;28;20136;-72
2022/11/04 12:08:39;;;;;;;0.55;0.55;;;15.80;70.10;;;;;;5032190;28;20103;-72
2022/11/04 12:11:11;;;;;;;0.50;0.50;;;15.80;70.10;;;;;;5032313;28;20053;-72
2022/11/04 12:13:40;;;;;;;0.60;0.60;;;15.80;70.10;;;;;;5031873;28;20060;-72
2022/11/04 12:16:18;;;;;;;0.60;0.60;;;15.80;70.10;;;;;;5032156;28;20059;-72
2022/11/04 12:18:58;;;;;;;0.80;0.60;;;15.80;70.10;;;;;;5030489;28;20577;-72
2022/11/04 12:21:32;;;;;;;0.40;0.40;;;15.80;70.10;;;;;;5012171;28;20060;-73
2022/11/04 12:24:00;;;;;;;0.50;0.50;;;15.80;70.10;;;;;;5012152;28;20500;-73
2022/11/04 12:26:34;;;;;;;0.60;0.60;;;15.80;70.10;;;;;;5045434;28;20096;-73
2022/11/04 12:29:08;;;;;;;0.50;0.50;;;15.80;70.00;;;;;;5028400;28;20137;-73
2022/11/04 12:31:41;;;;;;;0.60;0.60;;;15.80;70.10;;;;;;5045124;28;20430;-72
2022/11/04 12:34:12;;;;;;;0.50;0.50;;;15.80;70.10;;;;;;5027470;28;20064;-72
2022/11/04 12:37:04;;;;;;;0.50;0.50;;;15.80;70.10;;;;;;5032072;28;20053;-72
2022/11/04 12:39:39;;;;;;;0.75;0.63;;;15.80;70.00;;;;;;5029708;28;20446;-72
2022/11/04 12:42:11;;;;;;;;;;;15.80;70.10;;;;;;5031880;28;20534;-72
2022/11/04 12:44:42;;;;;;;0.70;0.70;;;15.70;70.10;;;;;;5032817;28;20317;-72
2022/11/04 12:47:15;;;;;;;1.30;0.80;;;15.70;70.20;;;;;;5029846;28;20059;-72
2022/11/04 12:50:16;;;;;;;0.70;0.70;;;15.80;70.10;;;;;;5042617;28;20077;-73
2022/11/04 12:53:06;;;;;;;0.77;0.70;;;15.80;70.10;;;;;;5011329;28;20046;-73
2022/11/04 12:55:38;;;;;;;0.77;0.60;;;15.80;70.00;;;;;;5044999;28;20072;-72
2022/11/04 12:58:15;;;;;;;0.50;0.50;;;15.70;70.00;;;;;;5011456;28;20068;-73
2022/11/04 13:00:41;;;;;;;0.60;0.60;;;15.80;70.10;;;;;;5011561;28;20064;-72
2022/11/04 13:03:11;;;;;;;0.60;0.50;;;15.80;70.00;;;;;;5045394;28;20195;-72
2022/11/04 13:05:41;;;;;;;0.73;0.70;;;15.80;70.00;;;;;;5011241;28;20396;-72
2022/11/04 13:08:13;;;;;;;0.65;0.65;;;15.80;70.00;;;;;;5027857;28;20054;-72
2022/11/04 13:10:42;;;;;;;1.48;0.60;;;15.80;70.00;;;;;;5012662;28;20062;-72
2022/11/04 13:13:10;;;;;;;0.47;0.47;;;15.80;70.00;;;;;;5030722;28;20410;-72
2022/11/04 13:15:42;;;;;;;0.80;0.60;;;15.80;70.00;;;;;;5030481;28;20417;-72
2022/11/04 13:18:09;;;;;;;0.57;0.57;;;15.80;69.90;;;;;;5038626;28;20132;-72
2022/11/04 13:20:43;;;;;;;0.90;0.50;;;15.80;70.00;;;;;;5040778;28;20045;-72
2022/11/04 13:23:14;;;;;;;0.65;0.65;;;15.80;69.90;;;;;;5034646;28;20049;-72
2022/11/04 13:25:42;;;;;;;1.23;0.70;;;15.80;69.90;;;;;;5039764;28;20057;-72